weather.gov     
National Weather Service

Terminal Aerodrome Forecast
NWS Homepage
This page is being discontinued on March 12, 2014.
The same data is available at this site. Please update your bookmarks.
Thank you, and we apologize for the inconvenience.
Please send an email to SR-SRH.Webmaster@noaa.gov with any concerns.


Current Version
Previous Version:    01  02  03  04  05  06  07  08  09  10  11  12  13  14  15  16  17  18  19  20  21  22  23  24  25  26  27  
[Printable]
099
FTUS41 KBOX 230550
TAFBAF
TAF
KBAF 230550Z 2306/2406 20005KT P6SM FEW250
     FM231300 21006KT P6SM FEW050
     FM231800 21010KT P6SM SCT250
     FM232100 21009KT P6SM VCTS BKN050CB
     FM240100 22006KT 5SM -SHRA OVC050
     FM240300 26004KT 3SM -SHRA BR OVC050=




099
FTUS41 KBOX 230550
TAFBAF
TAF
KBAF 230550Z 2306/2406 20005KT P6SM FEW250
     FM231300 21006KT P6SM FEW050
     FM231800 21010KT P6SM SCT250
     FM232100 21009KT P6SM VCTS BKN050CB
     FM240100 22006KT 5SM -SHRA OVC050
     FM240300 26004KT 3SM -SHRA BR OVC050=


U.S. Dept. of Commerce
NOAA National Weather Service
1325 East West Highway
Silver Spring, MD 20910
E-mail: w-nws.webmaster@noaa.gov
Page last modified: May 16, 2007
NATIONAL WEATHER SERVICE: for Safety, for Work, for Fun - FOR LIFE